Portada
METAR-TAF:

METAR-TAF

Aeropuertos :

Aeropuerto Internacional de Kuwait

Ciudad de Kuwait, Kuwait

latitud: 29-13N, longitud: 047-59E, altitud: 55 m

Observación

El informe se hizo hace 11 minutos, a las 11:00 UTC
Viento 5 kt del este
Temperatura 39°C
Humedad 16%
Presión 1007 hPa
Visibilidad: 8000 m

METAR: OKBK 231100Z 10005KT 8000 NSC 39/09 Q1007 NOSIG

Hora: 14:11 (11:11 UTC)

Pronóstico

El informe se hizo hace 12 horas y 26 minutos, a las 22:45 UTC
Pronóstico válido del 23 a las 00 UTC al 24 a las 06 UTC
Viento 3 kt con dirección variable
Visibilidad: 7000 m
Cielo despejado
Temporalmente
del 23 a las 04 UTC al 23 a las 12 UTC
Viento 10 kt del norte-noroeste

TAF: OKBK 222245Z 2300/2406 VRB03KT 7000 SKC TEMPO 2304/2312 34010KT

Observaciones y pronósticos meteorológicos de más de 4000 aeropuertos (mensajes METAR y TAF).

Los puntos amarillos y rojos representan las estaciones disponibles.

Ponga el ratón en el punto deseado para ver el nombre de la estación.

Haga clic para ver las observaciones y los pronósticos meteorológicos.

Para cambiar el mapa : haga clic en los botones verdes con una cruz de color negro para hacer un zoom, en el botón verde con un guión para alejar o en las flechas verdes para mapas adyacentes.


METAR-TAF: